createdAt,value
2023-04-30T00:00:12.541Z,12.65
2023-04-30T00:00:33.596Z,12.66
2023-04-30T00:00:54.704Z,12.65
2023-04-30T00:01:15.749Z,12.66
2023-04-30T00:01:36.946Z,12.66
2023-04-30T00:01:58.092Z,12.66
2023-04-30T00:02:19.413Z,12.65
2023-04-30T00:02:40.703Z,12.65
2023-04-30T00:03:01.868Z,12.65
2023-04-30T00:03:22.951Z,12.65
2023-04-30T00:03:44.096Z,12.64
2023-04-30T00:04:05.215Z,12.64
2023-04-30T00:04:26.326Z,12.65
2023-04-30T00:04:47.382Z,12.65
2023-04-30T00:05:08.474Z,12.64
2023-04-30T00:05:29.502Z,12.64
2023-04-30T00:05:50.566Z,12.65
2023-04-30T00:06:11.635Z,12.64
2023-04-30T00:06:32.709Z,12.64
2023-04-30T00:06:53.755Z,12.63
2023-04-30T00:07:14.834Z,12.63
2023-04-30T00:07:35.904Z,12.62
2023-04-30T00:07:57.176Z,12.62
2023-04-30T00:08:18.238Z,12.62
2023-04-30T00:08:39.295Z,12.61
2023-04-30T00:09:00.358Z,12.61
2023-04-30T00:09:21.429Z,12.61
2023-04-30T00:09:42.495Z,12.62
2023-04-30T00:10:03.543Z,12.61
2023-04-30T00:10:24.591Z,12.61
2023-04-30T00:10:45.664Z,12.60
2023-04-30T00:11:06.712Z,12.60
2023-04-30T00:11:27.769Z,12.60
2023-04-30T00:11:48.840Z,12.60
2023-04-30T00:12:09.909Z,12.60
2023-04-30T00:12:30.949Z,12.59
2023-04-30T00:12:52.069Z,12.60
2023-04-30T00:13:13.132Z,12.60
2023-04-30T00:13:34.199Z,12.60
2023-04-30T00:13:55.265Z,12.60
2023-04-30T00:14:16.326Z,12.60
2023-04-30T00:14:37.387Z,12.60
2023-04-30T00:14:58.462Z,12.60
2023-04-30T00:15:19.507Z,12.59
2023-04-30T00:15:40.570Z,12.59
2023-04-30T00:16:01.667Z,12.59
2023-04-30T00:16:22.875Z,12.59
2023-04-30T00:16:44.025Z,12.59
2023-04-30T00:17:05.135Z,12.58
2023-04-30T00:17:26.210Z,12.58
2023-04-30T00:17:47.317Z,12.58
2023-04-30T00:18:08.421Z,12.57
2023-04-30T00:18:29.654Z,12.57
2023-04-30T00:18:50.725Z,12.57
2023-04-30T00:19:11.788Z,12.56
2023-04-30T00:19:32.849Z,12.56
2023-04-30T00:19:54.042Z,12.56
2023-04-30T00:20:15.213Z,12.56
2023-04-30T00:20:36.374Z,12.56
2023-04-30T00:20:57.401Z,12.56
2023-04-30T00:21:18.459Z,12.56
2023-04-30T00:21:39.531Z,12.56
2023-04-30T00:22:00.597Z,12.55
2023-04-30T00:22:21.672Z,12.55
2023-04-30T00:22:42.726Z,12.54
2023-04-30T00:23:03.781Z,12.54
2023-04-30T00:23:25.054Z,12.54
2023-04-30T00:23:46.356Z,12.54
2023-04-30T00:24:07.383Z,12.54
2023-04-30T00:24:28.486Z,12.54
2023-04-30T00:24:49.518Z,12.54
2023-04-30T00:25:10.578Z,12.54
2023-04-30T00:25:31.663Z,12.54
2023-04-30T00:25:52.735Z,12.53
2023-04-30T00:26:13.802Z,12.52
2023-04-30T00:26:34.859Z,12.53
2023-04-30T00:26:55.912Z,12.52
2023-04-30T00:27:16.990Z,12.52
2023-04-30T00:27:40.610Z,12.52
2023-04-30T00:28:01.976Z,12.53
2023-04-30T00:28:23.010Z,12.51
2023-04-30T00:28:44.293Z,12.51
2023-04-30T00:29:05.395Z,12.51
2023-04-30T00:29:26.464Z,12.51
2023-04-30T00:29:47.534Z,12.51
2023-04-30T00:30:08.633Z,12.51
2023-04-30T00:30:29.680Z,12.50
2023-04-30T00:30:50.739Z,12.49
2023-04-30T00:31:11.788Z,12.50
2023-04-30T00:31:32.894Z,12.49
2023-04-30T00:31:53.984Z,12.49
2023-04-30T00:32:15.145Z,12.49
2023-04-30T00:32:36.517Z,12.48
2023-04-30T00:32:57.618Z,12.47
2023-04-30T00:33:18.677Z,12.48
2023-04-30T00:33:39.731Z,12.47
2023-04-30T00:34:00.841Z,12.47
2023-04-30T00:34:22.121Z,12.46
2023-04-30T00:34:43.188Z,12.46
2023-04-30T00:35:04.242Z,12.46
2023-04-30T00:35:25.312Z,12.45
2023-04-30T00:35:46.375Z,12.45
2023-04-30T00:36:07.454Z,12.44
2023-04-30T00:36:28.527Z,12.44
2023-04-30T00:36:49.595Z,12.43
2023-04-30T00:37:10.628Z,12.44
2023-04-30T00:37:31.697Z,12.43
2023-04-30T00:37:52.757Z,12.43
2023-04-30T00:38:13.806Z,12.43
2023-04-30T00:38:34.867Z,12.43
2023-04-30T00:38:55.931Z,12.42
2023-04-30T00:39:17.011Z,12.41
2023-04-30T00:39:38.115Z,12.41
2023-04-30T00:39:59.169Z,12.39
2023-04-30T00:40:20.227Z,12.39
2023-04-30T00:40:41.291Z,12.40
2023-04-30T00:41:02.372Z,12.38
2023-04-30T00:41:23.418Z,12.38
2023-04-30T00:41:44.489Z,12.37
2023-04-30T00:42:05.522Z,12.36
2023-04-30T00:42:26.587Z,12.35
2023-04-30T00:42:47.645Z,12.36
2023-04-30T00:43:08.721Z,12.35
2023-04-30T00:43:29.758Z,12.35
2023-04-30T00:43:50.839Z,12.34
2023-04-30T00:44:11.873Z,12.33
2023-04-30T00:44:32.971Z,12.33
2023-04-30T00:44:54.063Z,12.32
2023-04-30T00:45:15.130Z,12.32
2023-04-30T00:45:36.224Z,12.31
2023-04-30T00:45:57.426Z,12.31
2023-04-30T00:46:18.571Z,12.30
2023-04-30T00:46:39.631Z,12.30
2023-04-30T00:47:00.686Z,12.29
2023-04-30T00:47:21.771Z,12.28
2023-04-30T00:47:42.842Z,12.27
2023-04-30T00:48:03.940Z,12.27
2023-04-30T00:48:25.021Z,12.26
2023-04-30T00:48:46.049Z,12.27
2023-04-30T00:49:07.116Z,12.25
2023-04-30T00:49:28.174Z,12.25
2023-04-30T00:49:49.257Z,12.23
2023-04-30T00:50:10.373Z,12.23
2023-04-30T00:50:31.474Z,12.22
2023-04-30T00:50:52.497Z,12.22
2023-04-30T00:51:13.552Z,12.21
2023-04-30T00:51:34.610Z,12.21
2023-04-30T00:51:55.677Z,12.20
2023-04-30T00:52:16.735Z,12.19
2023-04-30T00:52:37.819Z,12.19
2023-04-30T00:52:58.855Z,12.18
2023-04-30T00:53:19.923Z,12.18
2023-04-30T00:53:40.997Z,12.17
2023-04-30T00:54:02.039Z,12.16
2023-04-30T00:54:23.123Z,12.16
2023-04-30T00:54:44.173Z,12.16
2023-04-30T00:55:05.272Z,12.16
2023-04-30T00:55:26.375Z,12.15
2023-04-30T00:55:47.428Z,12.14
2023-04-30T00:56:08.480Z,12.13
2023-04-30T00:56:29.538Z,12.14
2023-04-30T00:56:50.603Z,12.13
2023-04-30T00:57:11.663Z,12.13
2023-04-30T00:57:32.728Z,12.11
2023-04-30T00:57:53.799Z,12.10
2023-04-30T00:58:14.864Z,12.10
2023-04-30T00:58:35.908Z,12.10
2023-04-30T00:58:56.978Z,12.09
2023-04-30T00:59:18.031Z,12.08
2023-04-30T00:59:39.102Z,12.08
2023-04-30T01:00:00.177Z,12.07
2023-04-30T01:00:21.263Z,12.06
2023-04-30T01:00:42.564Z,12.05
2023-04-30T01:01:03.673Z,12.05
2023-04-30T01:01:24.744Z,12.05
2023-04-30T01:01:45.968Z,12.03
2023-04-30T01:02:07.227Z,12.02
2023-04-30T01:02:28.358Z,12.02
2023-04-30T01:02:49.539Z,12.01
2023-04-30T01:03:10.743Z,12.00
2023-04-30T01:03:31.930Z,11.99
2023-04-30T01:03:53.044Z,11.98
2023-04-30T01:04:14.133Z,11.98
2023-04-30T01:04:35.171Z,11.97
2023-04-30T01:04:56.260Z,11.96
2023-04-30T01:05:17.367Z,11.96
2023-04-30T01:05:38.464Z,11.95
2023-04-30T01:05:59.724Z,11.94
2023-04-30T01:06:20.860Z,11.94
2023-04-30T01:06:42.059Z,11.93
2023-04-30T01:07:03.123Z,11.92
2023-04-30T01:07:24.182Z,11.92
2023-04-30T01:07:45.367Z,11.91
2023-04-30T01:08:06.428Z,11.90
2023-04-30T01:08:27.482Z,11.89
2023-04-30T01:08:48.571Z,11.88
2023-04-30T01:09:09.640Z,11.88
2023-04-30T01:09:30.698Z,11.87
2023-04-30T01:09:51.967Z,11.86
2023-04-30T01:10:13.081Z,11.86
2023-04-30T01:10:34.122Z,11.85
2023-04-30T01:10:55.227Z,11.84
2023-04-30T01:11:16.320Z,11.83
2023-04-30T01:11:37.374Z,11.83
2023-04-30T01:11:58.431Z,11.82
2023-04-30T01:12:19.493Z,11.81
2023-04-30T01:12:40.583Z,11.80
2023-04-30T01:13:01.610Z,11.79
2023-04-30T01:13:22.688Z,11.79
2023-04-30T01:13:43.734Z,11.78
2023-04-30T01:14:04.788Z,11.78
2023-04-30T01:14:25.862Z,11.78
2023-04-30T01:14:46.918Z,11.76
2023-04-30T01:15:07.987Z,11.75
2023-04-30T01:15:29.087Z,11.74
2023-04-30T01:15:50.167Z,11.74
2023-04-30T01:16:11.451Z,11.73
2023-04-30T01:16:32.598Z,11.72
2023-04-30T01:16:53.708Z,11.71
2023-04-30T01:17:14.756Z,11.70
2023-04-30T01:17:35.830Z,11.69
2023-04-30T01:17:56.967Z,11.69
2023-04-30T01:18:18.164Z,11.69
2023-04-30T01:18:39.359Z,11.68
2023-04-30T01:19:00.590Z,11.67
2023-04-30T01:19:21.701Z,11.67
2023-04-30T01:19:42.769Z,11.66
2023-04-30T01:20:03.835Z,11.64
2023-04-30T01:20:24.900Z,11.65
2023-04-30T01:20:45.982Z,11.63
2023-04-30T01:21:07.044Z,11.63
2023-04-30T01:21:28.329Z,11.63
2023-04-30T01:21:49.604Z,11.62
2023-04-30T01:22:10.688Z,11.61
2023-04-30T01:22:31.748Z,11.61
2023-04-30T01:22:52.792Z,11.60
2023-04-30T01:23:13.876Z,11.60
2023-04-30T01:23:34.914Z,11.60
2023-04-30T01:23:55.988Z,11.59
2023-04-30T01:24:17.055Z,11.58
2023-04-30T01:24:38.122Z,11.58
2023-04-30T01:24:59.189Z,11.58
2023-04-30T01:25:20.322Z,11.58
2023-04-30T01:25:41.403Z,11.58
2023-04-30T01:26:02.438Z,11.57
2023-04-30T01:26:23.501Z,11.57
2023-04-30T01:26:44.770Z,11.56
2023-04-30T01:27:05.881Z,11.56
2023-04-30T01:27:26.925Z,11.56
2023-04-30T01:27:47.996Z,11.55
2023-04-30T01:28:09.081Z,11.55
2023-04-30T01:28:30.142Z,11.54
2023-04-30T01:28:51.200Z,11.54
2023-04-30T01:29:12.246Z,11.54
2023-04-30T01:29:33.315Z,11.53
2023-04-30T01:29:55.264Z,11.54
2023-04-30T01:30:16.461Z,11.53
2023-04-30T01:30:37.515Z,11.52
2023-04-30T01:30:58.607Z,11.51
2023-04-30T01:31:19.714Z,11.51
2023-04-30T01:31:40.892Z,11.51
2023-04-30T01:32:02.164Z,11.50
2023-04-30T01:32:23.457Z,11.50
2023-04-30T01:32:44.543Z,11.49
2023-04-30T01:33:05.579Z,11.49
2023-04-30T01:33:26.659Z,11.49
2023-04-30T01:33:47.713Z,11.48
2023-04-30T01:34:08.837Z,11.48
2023-04-30T01:34:29.892Z,11.48
2023-04-30T01:34:50.936Z,11.46
2023-04-30T01:35:12.029Z,11.47
2023-04-30T01:35:33.086Z,11.46
2023-04-30T01:35:54.139Z,11.46
2023-04-30T01:36:15.205Z,11.45
2023-04-30T01:36:36.311Z,11.45
2023-04-30T01:36:57.354Z,11.45
2023-04-30T01:37:18.451Z,11.44
2023-04-30T01:37:39.736Z,11.44
2023-04-30T01:38:00.839Z,11.44
2023-04-30T01:38:21.865Z,11.43
2023-04-30T01:38:42.949Z,11.43
2023-04-30T01:39:04.012Z,11.42
2023-04-30T01:39:25.065Z,11.41
2023-04-30T01:39:46.134Z,11.41
2023-04-30T01:40:07.209Z,11.41
2023-04-30T01:40:28.271Z,11.41
2023-04-30T01:40:49.306Z,11.41
2023-04-30T01:41:10.410Z,11.40
2023-04-30T01:41:31.441Z,11.41
2023-04-30T01:41:52.496Z,11.40
2023-04-30T01:42:13.588Z,11.40
2023-04-30T01:42:34.844Z,11.39
2023-04-30T01:42:55.967Z,11.39
2023-04-30T01:43:17.016Z,11.39
2023-04-30T01:43:38.106Z,11.38
2023-04-30T01:43:59.153Z,11.38
2023-04-30T01:44:20.256Z,11.38
2023-04-30T01:44:41.289Z,11.37
2023-04-30T01:45:02.390Z,11.36
2023-04-30T01:45:23.423Z,11.37
2023-04-30T01:45:44.468Z,11.36
2023-04-30T01:46:05.584Z,11.36
2023-04-30T01:46:26.742Z,11.35
2023-04-30T01:46:47.909Z,11.34
2023-04-30T01:47:08.935Z,11.34
2023-04-30T01:47:30.042Z,11.34
2023-04-30T01:47:51.163Z,11.33
2023-04-30T01:48:12.393Z,11.33
2023-04-30T01:48:33.467Z,11.34
2023-04-30T01:48:54.556Z,11.33
2023-04-30T01:49:15.576Z,11.33
2023-04-30T01:49:36.654Z,11.32
2023-04-30T01:49:57.710Z,11.32
2023-04-30T01:50:18.769Z,11.32
2023-04-30T01:50:39.838Z,11.32
2023-04-30T01:51:00.885Z,11.32
2023-04-30T01:51:21.959Z,11.31
2023-04-30T01:51:43.025Z,11.33
2023-04-30T01:52:04.064Z,11.32
2023-04-30T01:52:25.128Z,11.31
2023-04-30T01:52:46.194Z,11.31
2023-04-30T01:53:07.461Z,11.31
2023-04-30T01:53:28.559Z,11.31
2023-04-30T01:53:49.659Z,11.31
2023-04-30T01:54:10.736Z,11.31
2023-04-30T01:54:31.802Z,11.31
2023-04-30T01:54:52.863Z,11.30
2023-04-30T01:55:13.930Z,11.31
2023-04-30T01:55:34.993Z,11.30
2023-04-30T01:55:56.059Z,11.30
2023-04-30T01:56:17.109Z,11.30
2023-04-30T01:56:38.181Z,11.30
2023-04-30T01:56:59.231Z,11.30
2023-04-30T01:57:20.281Z,11.30
2023-04-30T01:57:41.373Z,11.29
2023-04-30T01:58:02.416Z,11.29
2023-04-30T01:58:23.685Z,11.29
2023-04-30T01:58:44.797Z,11.28
2023-04-30T01:59:05.860Z,11.28
2023-04-30T01:59:26.921Z,11.27
2023-04-30T01:59:47.988Z,11.27
2023-04-30T02:00:09.035Z,11.27
2023-04-30T02:00:30.108Z,11.27
2023-04-30T02:00:51.156Z,11.27
2023-04-30T02:01:12.245Z,11.27
2023-04-30T02:01:33.353Z,11.26
2023-04-30T02:01:54.520Z,11.26
2023-04-30T02:02:15.654Z,11.26
2023-04-30T02:02:36.862Z,11.26
2023-04-30T02:02:58.035Z,11.25
2023-04-30T02:03:19.175Z,11.24
2023-04-30T02:03:40.580Z,11.24
2023-04-30T02:04:01.764Z,11.24
2023-04-30T02:04:22.986Z,11.24
2023-04-30T02:04:44.045Z,11.24
2023-04-30T02:05:05.105Z,11.24
2023-04-30T02:05:26.167Z,11.24
2023-04-30T02:05:47.240Z,11.23
2023-04-30T02:06:08.358Z,11.23
2023-04-30T02:06:29.482Z,11.23
2023-04-30T02:06:50.524Z,11.24
2023-04-30T02:07:11.572Z,11.23
2023-04-30T02:07:32.634Z,11.22
2023-04-30T02:07:53.698Z,11.21
2023-04-30T02:08:14.768Z,11.21
2023-04-30T02:08:35.837Z,11.22
2023-04-30T02:08:56.928Z,11.22
2023-04-30T02:09:18.018Z,11.21
2023-04-30T02:09:39.074Z,11.21
2023-04-30T02:10:00.157Z,11.21
2023-04-30T02:10:21.203Z,11.21
2023-04-30T02:10:42.272Z,11.21
2023-04-30T02:11:03.324Z,11.20
2023-04-30T02:11:24.397Z,11.21
2023-04-30T02:11:45.442Z,11.19
2023-04-30T02:12:06.507Z,11.19
2023-04-30T02:12:27.560Z,11.19
2023-04-30T02:12:48.656Z,11.19
2023-04-30T02:13:09.704Z,11.19
2023-04-30T02:13:30.758Z,11.18
2023-04-30T02:13:51.846Z,11.18
2023-04-30T02:14:13.092Z,11.19
2023-04-30T02:14:34.175Z,11.17
2023-04-30T02:14:55.230Z,11.17
2023-04-30T02:15:16.307Z,11.16
2023-04-30T02:15:37.364Z,11.16
2023-04-30T02:15:58.461Z,11.16
2023-04-30T02:16:19.507Z,11.15
2023-04-30T02:16:40.577Z,11.14
2023-04-30T02:17:01.618Z,11.14
2023-04-30T02:17:22.681Z,11.13
2023-04-30T02:17:43.749Z,11.13
2023-04-30T02:18:04.878Z,11.13
2023-04-30T02:18:25.931Z,11.12
2023-04-30T02:18:46.992Z,11.12
2023-04-30T02:19:08.042Z,11.11
2023-04-30T02:19:29.149Z,11.11
2023-04-30T02:19:50.464Z,11.10
2023-04-30T02:20:11.525Z,11.09
2023-04-30T02:20:32.652Z,11.08
2023-04-30T02:20:53.675Z,11.07
2023-04-30T02:21:14.757Z,11.07
2023-04-30T02:21:35.802Z,11.06
2023-04-30T02:21:56.848Z,11.05
2023-04-30T02:22:17.924Z,11.05
2023-04-30T02:22:38.993Z,11.05
2023-04-30T02:23:00.069Z,11.04
2023-04-30T02:23:21.134Z,11.03
2023-04-30T02:23:42.169Z,11.03
2023-04-30T02:24:03.223Z,11.03
2023-04-30T02:24:24.281Z,11.02
2023-04-30T02:24:45.385Z,11.01
2023-04-30T02:25:06.497Z,11.01
2023-04-30T02:25:27.550Z,11.01
2023-04-30T02:25:48.627Z,11.00
2023-04-30T02:26:09.651Z,11.00
2023-04-30T02:26:30.723Z,10.99
2023-04-30T02:26:51.792Z,10.98
2023-04-30T02:27:12.853Z,10.97
2023-04-30T02:27:33.924Z,10.97
2023-04-30T02:27:54.973Z,10.97
2023-04-30T02:28:16.051Z,10.95
2023-04-30T02:28:37.163Z,10.95
2023-04-30T02:28:58.241Z,10.95
2023-04-30T02:29:19.277Z,10.94
2023-04-30T02:29:40.342Z,10.93
2023-04-30T02:30:01.453Z,10.94
2023-04-30T02:30:22.513Z,10.93
2023-04-30T02:30:43.562Z,10.92
2023-04-30T02:31:04.638Z,10.92
2023-04-30T02:31:25.710Z,10.91
2023-04-30T02:31:46.816Z,10.91
2023-04-30T02:32:07.854Z,10.90
2023-04-30T02:32:28.956Z,10.90
2023-04-30T02:32:50.008Z,10.89
2023-04-30T02:33:11.274Z,10.90
2023-04-30T02:33:32.305Z,10.89
2023-04-30T02:33:53.371Z,10.89
2023-04-30T02:34:14.427Z,10.89
2023-04-30T02:34:35.501Z,10.89
2023-04-30T02:34:56.552Z,10.88
2023-04-30T02:35:17.722Z,10.87
2023-04-30T02:35:38.784Z,10.87
2023-04-30T02:35:59.831Z,10.87
2023-04-30T02:36:20.890Z,10.86
2023-04-30T02:36:41.950Z,10.86
2023-04-30T02:37:03.023Z,10.86
2023-04-30T02:37:24.073Z,10.86
2023-04-30T02:37:45.135Z,10.85
2023-04-30T02:38:06.197Z,10.85
2023-04-30T02:38:27.268Z,10.85
2023-04-30T02:38:48.326Z,10.85
2023-04-30T02:39:09.388Z,10.85
2023-04-30T02:39:30.519Z,10.84
2023-04-30T02:39:51.555Z,10.84
2023-04-30T02:40:12.615Z,10.84
2023-04-30T02:40:33.715Z,10.84
2023-04-30T02:40:54.982Z,10.83
2023-04-30T02:41:16.050Z,10.84
2023-04-30T02:41:37.123Z,10.83
2023-04-30T02:41:58.197Z,10.83
2023-04-30T02:42:19.239Z,10.84
2023-04-30T02:42:40.309Z,10.84
2023-04-30T02:43:01.381Z,10.83
2023-04-30T02:43:22.456Z,10.83
2023-04-30T02:43:43.496Z,10.83
2023-04-30T02:44:04.588Z,10.83
2023-04-30T02:44:25.671Z,10.83
2023-04-30T02:44:46.778Z,10.83
2023-04-30T02:45:07.819Z,10.82
2023-04-30T02:45:28.935Z,10.82
2023-04-30T02:45:50.043Z,10.82
2023-04-30T02:46:11.261Z,10.82
2023-04-30T02:46:32.345Z,10.82
2023-04-30T02:46:53.417Z,10.82
2023-04-30T02:47:14.473Z,10.81
2023-04-30T02:47:35.580Z,10.81
2023-04-30T02:47:56.652Z,10.81
2023-04-30T02:48:17.711Z,10.80
2023-04-30T02:48:38.777Z,10.81
2023-04-30T02:48:59.831Z,10.81
2023-04-30T02:49:20.944Z,10.80
2023-04-30T02:49:41.972Z,10.80
2023-04-30T02:50:03.034Z,10.80
2023-04-30T02:50:24.090Z,10.80
2023-04-30T02:50:45.172Z,10.79
2023-04-30T02:51:06.249Z,10.79
2023-04-30T02:51:27.338Z,10.79
2023-04-30T02:51:48.427Z,10.78
2023-04-30T02:52:09.492Z,10.78
2023-04-30T02:52:30.538Z,10.78
2023-04-30T02:52:51.602Z,10.78
2023-04-30T02:53:12.662Z,10.77
2023-04-30T02:53:33.713Z,10.76
2023-04-30T02:53:54.796Z,10.76
2023-04-30T02:54:15.834Z,10.75
2023-04-30T02:54:36.885Z,10.75
2023-04-30T02:54:57.965Z,10.75
2023-04-30T02:55:19.005Z,10.75
2023-04-30T02:55:40.078Z,10.75
2023-04-30T02:56:01.152Z,10.75
2023-04-30T02:56:22.404Z,10.75
2023-04-30T02:56:43.456Z,10.75
2023-04-30T02:57:04.529Z,10.74
2023-04-30T02:57:25.583Z,10.74
2023-04-30T02:57:46.663Z,10.74
2023-04-30T02:58:07.716Z,10.74
2023-04-30T02:58:28.800Z,10.75
2023-04-30T02:58:49.842Z,10.74
2023-04-30T02:59:10.924Z,10.73
2023-04-30T02:59:31.956Z,10.73
2023-04-30T02:59:53.345Z,10.72
2023-04-30T03:00:14.614Z,10.72
2023-04-30T03:00:35.681Z,10.71
2023-04-30T03:00:56.817Z,10.71
2023-04-30T03:01:17.885Z,10.70
2023-04-30T03:01:39.011Z,10.71
2023-04-30T03:02:00.273Z,10.70
2023-04-30T03:02:21.526Z,10.69
2023-04-30T03:02:42.833Z,10.69
2023-04-30T03:03:04.017Z,10.69
2023-04-30T03:03:25.245Z,10.68
2023-04-30T03:03:46.364Z,10.69
2023-04-30T03:04:07.408Z,10.68
2023-04-30T03:04:28.487Z,10.67
2023-04-30T03:04:49.543Z,10.67
2023-04-30T03:05:10.588Z,10.67
2023-04-30T03:05:31.708Z,10.67
2023-04-30T03:05:52.728Z,10.67
2023-04-30T03:06:13.801Z,10.66
2023-04-30T03:06:34.987Z,10.66
2023-04-30T03:06:56.250Z,10.66
2023-04-30T03:07:17.371Z,10.66
2023-04-30T03:07:38.414Z,10.65
2023-04-30T03:07:59.480Z,10.65
2023-04-30T03:08:20.538Z,10.65
2023-04-30T03:08:41.593Z,10.64
2023-04-30T03:09:02.655Z,10.64
2023-04-30T03:09:23.709Z,10.64
2023-04-30T03:09:44.819Z,10.63
2023-04-30T03:10:05.852Z,10.63
2023-04-30T03:10:26.916Z,10.63
2023-04-30T03:10:47.973Z,10.63
2023-04-30T03:11:09.035Z,10.63
2023-04-30T03:11:30.125Z,10.62
2023-04-30T03:11:51.186Z,10.63
2023-04-30T03:12:12.570Z,10.62
2023-04-30T03:12:33.670Z,10.62
2023-04-30T03:12:54.726Z,10.62
2023-04-30T03:13:15.786Z,10.62
2023-04-30T03:13:36.848Z,10.62
2023-04-30T03:13:57.917Z,10.62
2023-04-30T03:14:18.980Z,10.61
2023-04-30T03:14:40.017Z,10.62
2023-04-30T03:15:01.093Z,10.62
2023-04-30T03:15:22.137Z,10.61
2023-04-30T03:15:43.209Z,10.62
2023-04-30T03:16:04.288Z,10.62
2023-04-30T03:16:25.360Z,10.62
2023-04-30T03:16:46.511Z,10.62
2023-04-30T03:17:07.628Z,10.61
2023-04-30T03:17:28.909Z,10.61
2023-04-30T03:17:49.963Z,10.60
2023-04-30T03:18:11.093Z,10.61
2023-04-30T03:18:32.181Z,10.61
2023-04-30T03:18:53.237Z,10.61
2023-04-30T03:19:14.303Z,10.60
2023-04-30T03:19:35.359Z,10.60
2023-04-30T03:19:56.636Z,10.60
2023-04-30T03:20:17.862Z,10.59
2023-04-30T03:20:38.911Z,10.59
2023-04-30T03:20:59.983Z,10.59
2023-04-30T03:21:21.075Z,10.59
2023-04-30T03:21:42.113Z,10.58
2023-04-30T03:22:03.185Z,10.58
2023-04-30T03:22:24.250Z,10.57
2023-04-30T03:22:45.327Z,10.57
2023-04-30T03:23:06.415Z,10.57
2023-04-30T03:23:27.509Z,10.56
2023-04-30T03:23:48.544Z,10.56
2023-04-30T03:24:09.624Z,10.56
2023-04-30T03:24:30.658Z,10.56
2023-04-30T03:24:51.729Z,10.56
2023-04-30T03:25:12.796Z,10.56
2023-04-30T03:25:33.848Z,10.56
2023-04-30T03:25:54.910Z,10.55
2023-04-30T03:26:16.411Z,10.55
2023-04-30T03:26:37.491Z,10.55
2023-04-30T03:26:58.549Z,10.55
2023-04-30T03:27:19.585Z,10.57
2023-04-30T03:27:40.653Z,10.56
2023-04-30T03:28:01.753Z,10.56
2023-04-30T03:28:22.897Z,10.56
2023-04-30T03:28:43.922Z,10.57
2023-04-30T03:29:05.017Z,10.56
2023-04-30T03:29:26.092Z,10.56
2023-04-30T03:29:47.115Z,10.55
2023-04-30T03:30:08.191Z,10.55
2023-04-30T03:30:29.246Z,10.55
2023-04-30T03:30:50.317Z,10.54
2023-04-30T03:31:11.438Z,10.54
2023-04-30T03:31:32.579Z,10.54
2023-04-30T03:31:53.848Z,10.55
2023-04-30T03:32:14.957Z,10.54
2023-04-30T03:32:36.030Z,10.54
2023-04-30T03:32:57.121Z,10.53
2023-04-30T03:33:18.522Z,10.54
2023-04-30T03:33:39.703Z,10.53
2023-04-30T03:34:00.771Z,10.53
2023-04-30T03:34:21.813Z,10.54
2023-04-30T03:34:42.923Z,10.53
2023-04-30T03:35:03.966Z,10.53
2023-04-30T03:35:25.033Z,10.53
2023-04-30T03:35:46.101Z,10.53
2023-04-30T03:36:07.164Z,10.54
2023-04-30T03:36:28.227Z,10.53
2023-04-30T03:36:49.315Z,10.53
2023-04-30T03:37:10.363Z,10.53
2023-04-30T03:37:31.420Z,10.53
2023-04-30T03:37:52.478Z,10.52
2023-04-30T03:38:13.563Z,10.53
2023-04-30T03:38:34.871Z,10.53
2023-04-30T03:38:55.964Z,10.53
2023-04-30T03:39:17.023Z,10.53
2023-04-30T03:39:38.066Z,10.53
2023-04-30T03:39:59.140Z,10.53
2023-04-30T03:40:20.190Z,10.53
2023-04-30T03:40:41.247Z,10.52
2023-04-30T03:41:02.322Z,10.53
2023-04-30T03:41:23.389Z,10.53
2023-04-30T03:41:44.426Z,10.53
2023-04-30T03:42:05.502Z,10.52
2023-04-30T03:42:26.563Z,10.53
2023-04-30T03:42:48.922Z,10.52
2023-04-30T03:43:11.804Z,10.53
2023-04-30T03:43:32.864Z,10.53
2023-04-30T03:43:53.993Z,10.53
2023-04-30T03:44:15.114Z,10.52
2023-04-30T03:44:36.172Z,10.52
2023-04-30T03:44:57.234Z,10.51
2023-04-30T03:45:18.268Z,10.52
2023-04-30T03:45:39.341Z,10.52
2023-04-30T03:46:00.489Z,10.50
2023-04-30T03:46:21.602Z,10.51
2023-04-30T03:46:42.757Z,10.50
2023-04-30T03:47:03.893Z,10.50
2023-04-30T03:47:25.379Z,10.50
2023-04-30T03:47:46.487Z,10.50
2023-04-30T03:48:07.631Z,10.50
2023-04-30T03:48:28.666Z,10.50
2023-04-30T03:48:49.745Z,10.49
2023-04-30T03:49:31.832Z,10.49
2023-04-30T03:49:53.072Z,10.48
2023-04-30T03:50:14.349Z,10.48
2023-04-30T03:50:35.392Z,10.48
2023-04-30T03:50:56.458Z,10.48
2023-04-30T03:51:17.516Z,10.48
2023-04-30T03:51:38.602Z,10.47
2023-04-30T03:51:59.635Z,10.47
2023-04-30T03:52:20.701Z,10.46
2023-04-30T03:52:41.768Z,10.47
2023-04-30T03:53:02.822Z,10.46
2023-04-30T03:53:23.890Z,10.46
2023-04-30T03:53:44.972Z,10.45
2023-04-30T03:54:06.023Z,10.45
2023-04-30T03:54:27.097Z,10.46
2023-04-30T03:54:48.174Z,10.45
2023-04-30T03:55:09.283Z,10.45
2023-04-30T03:55:30.338Z,10.45
2023-04-30T03:55:51.403Z,10.44
2023-04-30T03:56:12.467Z,10.44
2023-04-30T03:56:33.524Z,10.43
2023-04-30T03:56:54.573Z,10.43
2023-04-30T03:57:15.630Z,10.42
2023-04-30T03:57:36.679Z,10.43
2023-04-30T03:57:57.741Z,10.42
2023-04-30T03:58:18.813Z,10.42
2023-04-30T03:58:39.865Z,10.42
2023-04-30T03:59:00.927Z,10.42
2023-04-30T03:59:21.988Z,10.41
2023-04-30T03:59:43.062Z,10.41
2023-04-30T04:00:04.160Z,10.41
2023-04-30T04:00:25.263Z,10.41
2023-04-30T04:00:46.311Z,10.41
2023-04-30T04:01:07.384Z,10.41
2023-04-30T04:01:28.436Z,10.41
2023-04-30T04:01:49.549Z,10.41
2023-04-30T04:02:10.632Z,10.40
2023-04-30T04:02:31.724Z,10.42
2023-04-30T04:02:52.874Z,10.41
2023-04-30T04:03:13.985Z,10.41
2023-04-30T04:03:35.039Z,10.41
2023-04-30T04:03:56.135Z,10.41
2023-04-30T04:04:17.236Z,10.41
2023-04-30T04:04:38.252Z,10.42
2023-04-30T04:04:59.311Z,10.42
2023-04-30T04:05:20.436Z,10.41
2023-04-30T04:05:41.682Z,10.41
2023-04-30T04:06:02.859Z,10.41
2023-04-30T04:06:23.956Z,10.41
2023-04-30T04:06:45.038Z,10.41
2023-04-30T04:07:06.097Z,10.42
2023-04-30T04:07:27.160Z,10.41
2023-04-30T04:07:48.242Z,10.41
2023-04-30T04:08:09.301Z,10.41
2023-04-30T04:08:30.346Z,10.42
2023-04-30T04:08:51.397Z,10.41
2023-04-30T04:09:12.463Z,10.42
2023-04-30T04:09:33.512Z,10.41
2023-04-30T04:09:54.806Z,10.42
2023-04-30T04:10:15.968Z,10.42
2023-04-30T04:10:37.084Z,10.42
2023-04-30T04:10:58.179Z,10.42
2023-04-30T04:11:19.238Z,10.43
2023-04-30T04:11:40.312Z,10.42
2023-04-30T04:12:01.372Z,10.43
2023-04-30T04:12:22.415Z,10.43
2023-04-30T04:12:43.470Z,10.43
2023-04-30T04:13:04.527Z,10.43
2023-04-30T04:13:25.604Z,10.44
2023-04-30T04:13:46.646Z,10.44
2023-04-30T04:14:07.736Z,10.44
2023-04-30T04:14:28.783Z,10.44
2023-04-30T04:14:49.840Z,10.45
2023-04-30T04:15:10.889Z,10.45
2023-04-30T04:15:31.949Z,10.45
2023-04-30T04:15:53.315Z,10.45
2023-04-30T04:16:14.531Z,10.46
2023-04-30T04:16:35.682Z,10.46
2023-04-30T04:16:56.752Z,10.46
2023-04-30T04:17:17.821Z,10.46
2023-04-30T04:17:39.016Z,10.46
2023-04-30T04:18:00.123Z,10.46
2023-04-30T04:18:21.239Z,10.47
2023-04-30T04:18:42.278Z,10.46
2023-04-30T04:19:03.423Z,10.46
2023-04-30T04:19:24.463Z,10.46
2023-04-30T04:19:45.508Z,10.46
2023-04-30T04:20:06.627Z,10.46
2023-04-30T04:20:27.692Z,10.46
2023-04-30T04:20:48.748Z,10.46
2023-04-30T04:21:09.844Z,10.46
2023-04-30T04:21:31.139Z,10.46
2023-04-30T04:21:52.218Z,10.45
2023-04-30T04:22:13.270Z,10.46
2023-04-30T04:22:34.352Z,10.46
2023-04-30T04:22:55.440Z,10.45
2023-04-30T04:23:16.504Z,10.46
2023-04-30T04:23:37.562Z,10.46
2023-04-30T04:23:58.629Z,10.46
2023-04-30T04:24:19.681Z,10.47
2023-04-30T04:24:40.744Z,10.47
2023-04-30T04:25:01.809Z,10.46
2023-04-30T04:25:22.877Z,10.47
2023-04-30T04:25:43.942Z,10.46
2023-04-30T04:26:05.033Z,10.47
2023-04-30T04:26:26.105Z,10.47
2023-04-30T04:26:48.139Z,10.47
2023-04-30T04:27:09.253Z,10.47
2023-04-30T04:27:30.319Z,10.47
2023-04-30T04:27:51.389Z,10.48
2023-04-30T04:28:12.450Z,10.47
2023-04-30T04:28:33.511Z,10.47
2023-04-30T04:28:54.586Z,10.47
2023-04-30T04:29:15.636Z,10.48
2023-04-30T04:29:36.729Z,10.47
2023-04-30T04:29:57.767Z,10.48
2023-04-30T04:30:18.814Z,10.47
2023-04-30T04:30:39.883Z,10.48
2023-04-30T04:31:00.936Z,10.48
2023-04-30T04:31:22.013Z,10.48
2023-04-30T04:31:43.127Z,10.47
2023-04-30T04:32:04.495Z,10.48